Time;durP1;ratioP1;P1;durP2;ratioP2;P2;SDS_P1;SDS_P2;PMS_P1;PMS_P2;Temp;Humidity;BMP_temperature;BMP_pressure;BME280_temperature;BME280_humidity;BME280_pressure;Samples;Min_cycle;Max_cycle;Signal;HPM_P1;HPM_P2
2023/04/02 00:01:53;;;;;;;8.05;3.83;;;4.60;99.90;;;;;;5019902;28;20203;-83
2023/04/02 00:04:21;;;;;;;9.38;4.00;;;4.60;99.90;;;;;;5017340;28;20048;-83
2023/04/02 00:06:55;;;;;;;7.28;3.45;;;4.50;99.90;;;;;;5017493;28;20712;-83
2023/04/02 00:09:35;;;;;;;8.90;4.15;;;4.50;99.90;;;;;;5040438;28;20069;-83
2023/04/02 00:12:16;;;;;;;6.57;3.92;;;4.50;99.90;;;;;;5002264;28;20049;-83
2023/04/02 00:14:52;;;;;;;7.63;4.38;;;4.40;99.90;;;;;;5043901;28;20038;-83
2023/04/02 00:17:21;;;;;;;6.53;4.13;;;4.40;99.90;;;;;;5001615;28;20045;-83
2023/04/02 00:19:55;;;;;;;9.70;3.47;;;4.40;99.90;;;;;;5030728;28;20053;-83
2023/04/02 00:22:26;;;;;;;10.00;3.97;;;4.30;99.90;;;;;;5016616;28;20411;-84
2023/04/02 00:24:54;;;;;;;5.68;3.58;;;4.30;99.90;;;;;;4998949;28;20398;-83
2023/04/02 00:27:20;;;;;;;5.45;3.63;;;4.20;99.90;;;;;;5017019;28;20142;-83
2023/04/02 00:29:52;;;;;;;7.15;3.97;;;4.20;99.90;;;;;;5016315;28;20927;-83
2023/04/02 00:32:40;;;;;;;8.30;3.78;;;4.10;99.90;;;;;;5027794;28;20571;-83
2023/04/02 00:35:14;;;;;;;9.10;4.00;;;4.10;99.90;;;;;;5014874;28;20506;-83
2023/04/02 00:37:41;;;;;;;11.25;3.67;;;3.90;99.90;;;;;;5003052;28;20137;-82
2023/04/02 00:40:21;;;;;;;9.40;3.80;;;3.80;99.90;;;;;;5040756;28;20053;-83
2023/04/02 00:42:48;;;;;;;7.55;3.63;;;3.70;99.90;;;;;;4998867;28;20048;-83
2023/04/02 00:45:29;;;;;;;6.43;3.30;;;3.60;99.90;;;;;;5015836;28;20045;-83
2023/04/02 00:47:58;;;;;;;6.63;3.35;;;3.50;99.90;;;;;;5040796;28;20063;-83
2023/04/02 00:50:35;;;;;;;8.07;3.40;;;3.40;99.90;;;;;;5013252;28;20056;-83
2023/04/02 00:53:16;;;;;;;7.45;4.10;;;3.40;99.90;;;;;;5026002;28;20124;-83
2023/04/02 00:55:42;;;;;;;8.93;3.90;;;3.30;99.90;;;;;;5023555;28;20353;-84
2023/04/02 00:58:35;;;;;;;6.10;3.60;;;3.20;99.90;;;;;;5016191;28;20041;-83
2023/04/02 01:01:19;;;;;;;7.05;3.90;;;3.20;99.90;;;;;;5005063;28;20359;-84
2023/04/02 01:04:25;;;;;;;10.98;3.75;;;3.10;99.90;;;;;;5043584;28;20045;-83
2023/04/02 01:06:52;;;;;;;8.10;3.35;;;3.10;99.90;;;;;;5005839;28;20049;-83
2023/04/02 01:09:31;;;;;;;8.50;3.70;;;3.00;99.90;;;;;;4998779;28;20455;-83
2023/04/02 01:12:09;;;;;;;6.55;3.75;;;3.00;99.90;;;;;;5034751;28;20041;-84
2023/04/02 01:14:54;;;;;;;9.88;3.53;;;3.00;99.90;;;;;;5021517;28;20041;-84
2023/04/02 01:17:47;;;;;;;6.53;3.58;;;2.90;99.90;;;;;;5004047;28;20084;-84
2023/04/02 01:20:34;;;;;;;5.97;3.53;;;2.90;99.90;;;;;;5002803;28;20510;-84
2023/04/02 01:23:19;;;;;;;6.63;3.47;;;2.80;99.90;;;;;;5022405;28;20049;-84
2023/04/02 01:26:00;;;;;;;5.97;3.45;;;2.80;99.90;;;;;;5020026;28;20444;-83
2023/04/02 01:29:06;;;;;;;8.45;3.88;;;2.80;99.90;;;;;;5020582;28;20068;-83
2023/04/02 01:31:34;;;;;;;9.60;3.85;;;2.70;99.90;;;;;;4974286;28;20046;-84
2023/04/02 01:34:07;;;;;;;6.75;3.72;;;2.70;99.90;;;;;;5017443;28;20096;-84
2023/04/02 01:36:53;;;;;;;9.85;3.75;;;2.70;99.90;;;;;;5020896;28;20061;-83
2023/04/02 01:39:51;;;;;;;12.65;3.80;;;2.60;99.90;;;;;;5021351;28;20129;-83
2023/04/02 01:42:37;;;;;;;7.10;3.65;;;2.60;99.90;;;;;;5034324;28;20137;-84
2023/04/02 01:45:09;;;;;;;8.35;4.18;;;2.50;99.90;;;;;;5016284;28;20055;-84
2023/04/02 01:47:39;;;;;;;6.82;3.17;;;2.50;99.90;;;;;;5016674;28;20050;-83
2023/04/02 01:50:23;;;;;;;10.25;3.83;;;2.50;99.90;;;;;;5018145;28;20060;-84
2023/04/02 01:52:58;;;;;;;5.80;3.38;;;2.50;99.90;;;;;;5017367;28;20136;-83
2023/04/02 01:55:31;;;;;;;7.10;3.22;;;2.40;99.90;;;;;;5016419;28;20281;-83
2023/04/02 01:57:59;;;;;;;7.18;2.88;;;2.40;99.90;;;;;;5016456;28;20121;-83
2023/04/02 02:00:27;;;;;;;8.02;3.10;;;2.30;99.90;;;;;;5000076;28;20037;-84
2023/04/02 02:02:53;;;;;;;6.82;2.90;;;2.30;99.90;;;;;;5019021;28;20049;-83
2023/04/02 02:05:30;;;;;;;7.28;3.28;;;2.30;99.90;;;;;;5003306;28;20486;-83
2023/04/02 02:07:57;;;;;;;6.03;3.10;;;2.30;99.90;;;;;;5020426;28;20089;-83
2023/04/02 02:10:32;;;;;;;8.68;2.90;;;2.30;99.90;;;;;;5017456;28;20513;-83
2023/04/02 02:12:59;;;;;;;6.10;2.88;;;2.20;99.90;;;;;;5019189;28;20382;-83
2023/04/02 02:15:26;;;;;;;7.90;2.63;;;2.20;99.90;;;;;;5017637;28;20142;-84
2023/04/02 02:18:02;;;;;;;6.88;3.17;;;2.20;99.90;;;;;;5002753;28;20405;-83
2023/04/02 02:20:29;;;;;;;6.47;2.75;;;2.10;99.90;;;;;;5031256;28;20095;-84
2023/04/02 02:22:56;;;;;;;6.32;2.72;;;2.10;99.90;;;;;;5019006;28;20423;-84
2023/04/02 02:25:29;;;;;;;4.30;2.70;;;2.10;99.90;;;;;;5018069;28;20126;-84
2023/04/02 02:28:31;;;;;;;6.03;2.42;;;2.00;99.90;;;;;;5001481;28;20124;-84
2023/04/02 02:31:00;;;;;;;6.45;2.90;;;2.00;99.90;;;;;;4977537;28;20045;-84
2023/04/02 02:33:42;;;;;;;6.25;2.97;;;2.00;99.90;;;;;;5021046;28;20048;-84
2023/04/02 02:36:41;;;;;;;7.85;3.05;;;2.00;99.90;;;;;;5014368;28;20463;-84
2023/04/02 02:39:26;;;;;;;7.55;2.53;;;1.90;99.90;;;;;;5017664;28;20056;-83
2023/04/02 02:42:04;;;;;;;4.70;2.70;;;1.90;99.90;;;;;;5018184;28;20390;-83
2023/04/02 02:44:36;;;;;;;5.90;2.65;;;1.80;99.90;;;;;;4997440;28;20081;-84
2023/04/02 02:47:10;;;;;;;7.28;2.55;;;1.80;99.90;;;;;;5015362;28;20430;-84
2023/04/02 02:49:40;;;;;;;6.75;2.47;;;1.80;99.90;;;;;;5015458;28;20050;-84
2023/04/02 02:52:20;;;;;;;7.78;2.50;;;1.80;99.90;;;;;;5018497;28;20558;-83
2023/04/02 02:54:50;;;;;;;8.40;2.40;;;1.70;99.90;;;;;;5016085;28;20475;-83
2023/04/02 02:57:30;;;;;;;5.38;2.17;;;1.70;99.90;;;;;;5015939;28;20081;-83
2023/04/02 02:59:59;;;;;;;9.15;3.05;;;1.70;99.90;;;;;;5017090;28;20463;-83
2023/04/02 03:02:26;;;;;;;5.00;2.17;;;1.60;99.90;;;;;;5020094;28;20076;-83
2023/04/02 03:04:56;;;;;;;4.32;2.20;;;1.60;99.90;;;;;;4998365;28;20057;-83
2023/04/02 03:07:25;;;;;;;6.95;2.20;;;1.60;99.90;;;;;;5002621;28;20330;-83
2023/04/02 03:10:10;;;;;;;4.30;2.20;;;1.50;99.90;;;;;;5014454;28;20065;-83
2023/04/02 03:12:51;;;;;;;7.53;2.00;;;1.60;99.90;;;;;;5016711;28;20406;-84
2023/04/02 03:15:39;;;;;;;4.88;2.10;;;1.60;99.90;;;;;;5022159;28;20076;-83
2023/04/02 03:18:12;;;;;;;6.80;2.42;;;1.50;99.90;;;;;;5016581;28;20029;-83
2023/04/02 03:21:01;;;;;;;7.93;2.53;;;1.50;99.90;;;;;;5016663;28;20045;-84
2023/04/02 03:23:39;;;;;;;4.93;2.03;;;1.50;99.90;;;;;;5017560;28;20042;-83
2023/04/02 03:26:36;;;;;;;5.40;2.22;;;1.50;99.90;;;;;;5013528;28;20133;-84
2023/04/02 03:29:23;;;;;;;6.82;2.20;;;1.40;99.90;;;;;;5014548;28;20129;-84
2023/04/02 03:31:56;;;;;;;6.05;2.20;;;1.30;99.90;;;;;;5041841;28;20103;-84
2023/04/02 03:34:32;;;;;;;7.53;2.47;;;1.40;99.90;;;;;;5016228;28;20069;-83
2023/04/02 03:37:14;;;;;;;5.20;2.40;;;1.30;99.90;;;;;;5016093;28;20064;-84
2023/04/02 03:39:57;;;;;;;5.85;2.38;;;1.30;99.90;;;;;;5026236;28;20625;-84
2023/04/02 03:42:24;;;;;;;5.90;2.35;;;1.40;99.90;;;;;;5000202;28;20424;-83
2023/04/02 03:45:06;;;;;;;6.72;3.03;;;1.30;99.90;;;;;;4999818;28;20045;-84
2023/04/02 03:47:43;;;;;;;6.35;2.33;;;1.30;99.90;;;;;;5017663;28;20140;-84
2023/04/02 03:50:26;;;;;;;4.60;2.00;;;1.20;99.90;;;;;;5014605;28;20060;-83
2023/04/02 03:52:55;;;;;;;6.68;2.75;;;1.20;99.90;;;;;;5018545;28;20033;-83
2023/04/02 03:55:24;;;;;;;5.10;1.73;;;1.20;99.90;;;;;;5044544;28;20064;-83
2023/04/02 03:57:59;;;;;;;9.77;2.45;;;1.30;99.90;;;;;;5044527;28;20060;-83
2023/04/02 04:00:29;;;;;;;6.68;2.22;;;1.30;99.90;;;;;;5014510;28;20136;-83
2023/04/02 04:03:02;;;;;;;3.75;1.98;;;1.30;99.90;;;;;;5020334;28;20517;-83
2023/04/02 04:05:29;;;;;;;12.38;2.30;;;1.30;99.90;;;;;;5012869;28;20485;-84
2023/04/02 04:08:06;;;;;;;9.00;2.03;;;1.30;99.90;;;;;;5018694;28;20045;-84
2023/04/02 04:10:34;;;;;;;6.13;2.20;;;1.20;99.90;;;;;;4999648;28;20507;-84
2023/04/02 04:13:17;;;;;;;4.60;1.95;;;1.20;99.90;;;;;;5016198;28;20045;-83
2023/04/02 04:16:00;;;;;;;5.85;1.95;;;1.20;99.90;;;;;;5018178;28;20061;-83
2023/04/02 04:18:36;;;;;;;4.80;1.77;;;1.20;99.90;;;;;;5003029;28;20029;-83
2023/04/02 04:21:28;;;;;;;9.65;2.47;;;1.20;99.90;;;;;;5015321;28;20071;-84
2023/04/02 04:23:55;;;;;;;7.50;2.03;;;1.20;99.90;;;;;;4999560;28;20041;-84
2023/04/02 04:26:29;;;;;;;7.45;2.08;;;1.20;99.90;;;;;;5013888;28;20059;-83
2023/04/02 04:29:36;;;;;;;4.47;1.70;;;1.20;99.90;;;;;;5013171;28;20449;-83
2023/04/02 04:32:30;;;;;;;5.88;2.03;;;1.30;99.90;;;;;;4992079;28;20502;-84
2023/04/02 04:35:21;;;;;;;10.68;2.13;;;1.20;99.90;;;;;;5030352;28;20041;-84
2023/04/02 04:37:52;;;;;;;6.03;2.15;;;1.20;99.90;;;;;;5021360;28;20072;-84
2023/04/02 04:40:52;;;;;;;4.45;2.00;;;1.20;99.90;;;;;;5018943;28;20049;-84
2023/04/02 04:43:37;;;;;;;7.05;2.25;;;1.20;99.90;;;;;;5046096;28;20033;-85
2023/04/02 04:46:07;;;;;;;;;;;1.10;99.90;;;;;;5003548;28;20041;-84
2023/04/02 04:48:50;;;;;;;5.47;2.17;;;1.10;99.90;;;;;;5028961;28;19967;-84
2023/04/02 04:51:28;;;;;;;5.55;2.05;;;1.10;99.90;;;;;;5020310;28;20522;-84
2023/04/02 04:53:54;;;;;;;4.13;2.05;;;1.10;99.90;;;;;;5034673;28;20037;-84
2023/04/02 04:56:26;;;;;;;6.40;1.60;;;1.10;99.90;;;;;;5045670;28;20265;-85
2023/04/02 04:59:10;;;;;;;6.32;2.25;;;1.20;99.90;;;;;;5022283;28;20098;-84
2023/04/02 05:01:47;;;;;;;6.15;1.92;;;1.20;99.90;;;;;;5022828;28;20115;-84
2023/04/02 05:04:23;;;;;;;3.92;1.75;;;1.10;99.90;;;;;;5019992;28;20049;-84
2023/04/02 05:07:20;;;;;;;3.58;1.80;;;1.20;99.90;;;;;;5045496;28;20045;-84
2023/04/02 05:10:18;;;;;;;4.55;1.77;;;1.20;99.90;;;;;;5018211;28;20061;-84
2023/04/02 05:13:00;;;;;;;5.97;2.00;;;1.20;99.90;;;;;;5049512;28;20064;-84
2023/04/02 05:15:34;;;;;;;8.30;2.00;;;1.20;99.90;;;;;;5047350;28;20109;-84
2023/04/02 05:18:19;;;;;;;4.05;1.65;;;1.20;99.90;;;;;;5019515;28;20078;-84
2023/04/02 05:20:46;;;;;;;;;;;1.20;99.90;;;;;;5020886;28;20041;-84
2023/04/02 05:23:28;;;;;;;5.95;2.00;;;1.30;99.90;;;;;;5018752;28;19996;-84
2023/04/02 05:26:13;;;;;;;7.72;2.13;;;1.30;99.90;;;;;;5019033;28;20222;-84
2023/04/02 05:28:45;;;;;;;5.97;2.00;;;1.30;99.90;;;;;;5019043;28;20362;-85
2023/04/02 05:31:16;;;;;;;6.57;1.90;;;1.30;99.90;;;;;;5018431;28;20033;-85
2023/04/02 05:33:46;;;;;;;5.03;1.90;;;1.30;99.90;;;;;;5018003;28;20123;-85
2023/04/02 05:36:25;;;;;;;4.22;1.80;;;1.30;99.90;;;;;;5017812;28;20057;-84
2023/04/02 05:38:52;;;;;;;8.25;1.85;;;1.40;99.90;;;;;;5021184;28;20044;-84
2023/04/02 05:41:25;;;;;;;6.35;1.92;;;1.50;99.90;;;;;;5017598;28;20073;-84
2023/04/02 05:44:10;;;;;;;6.65;2.47;;;1.50;99.90;;;;;;5016569;28;20538;-84
2023/04/02 05:47:02;;;;;;;7.43;2.10;;;1.60;99.90;;;;;;5003567;28;20049;-84
2023/04/02 05:49:46;;;;;;;6.65;1.80;;;1.60;99.90;;;;;;5002651;28;20282;-84
2023/04/02 05:52:16;;;;;;;5.60;1.80;;;1.60;99.90;;;;;;5020886;28;20045;-84
2023/04/02 05:54:52;;;;;;;6.90;1.90;;;1.70;99.90;;;;;;5017364;28;20046;-84
2023/04/02 05:57:24;;;;;;;3.65;1.55;;;1.70;99.90;;;;;;5004230;28;20077;-84
2023/04/02 05:59:56;;;;;;;8.05;1.80;;;1.80;99.90;;;;;;5035998;28;20053;-85
2023/04/02 06:02:53;;;;;;;4.68;1.73;;;1.80;99.90;;;;;;5020435;28;20048;-84
2023/04/02 06:05:24;;;;;;;5.68;1.80;;;1.90;99.90;;;;;;5016353;28;20049;-83
2023/04/02 06:08:00;;;;;;;5.57;1.73;;;1.90;99.90;;;;;;5001325;28;20045;-84
2023/04/02 06:10:42;;;;;;;7.15;1.55;;;2.00;99.90;;;;;;5006371;28;20233;-84
2023/04/02 06:13:14;;;;;;;6.07;1.60;;;2.10;99.90;;;;;;5029931;28;20045;-84
2023/04/02 06:15:40;;;;;;;4.40;1.60;;;2.10;99.90;;;;;;5042676;28;20037;-85
2023/04/02 06:18:24;;;;;;;6.20;1.67;;;2.20;99.90;;;;;;5018443;28;20317;-84
2023/04/02 06:20:50;;;;;;;4.40;1.70;;;2.20;99.90;;;;;;5043300;28;20195;-84
2023/04/02 06:23:18;;;;;;;4.28;1.40;;;2.30;99.90;;;;;;5036388;28;20125;-85
2023/04/02 06:25:49;;;;;;;9.18;1.63;;;2.40;99.90;;;;;;5002580;28;20202;-83
2023/04/02 06:28:25;;;;;;;5.40;1.50;;;2.40;99.90;;;;;;5017729;28;20041;-84
2023/04/02 06:30:57;;;;;;;5.90;2.00;;;2.40;99.90;;;;;;5043121;28;20048;-84
2023/04/02 06:33:22;;;;;;;4.57;1.60;;;2.50;99.90;;;;;;5017555;28;20041;-84
2023/04/02 06:35:50;;;;;;;4.57;1.55;;;2.50;99.90;;;;;;5018560;28;20576;-84
2023/04/02 06:38:24;;;;;;;5.18;1.58;;;2.60;99.90;;;;;;5020303;28;20053;-84
2023/04/02 06:40:55;;;;;;;4.43;1.60;;;2.70;99.90;;;;;;5046326;28;20469;-85
2023/04/02 06:43:36;;;;;;;5.32;1.50;;;2.70;99.90;;;;;;4999836;28;20563;-84
2023/04/02 06:46:18;;;;;;;5.82;1.73;;;2.80;99.90;;;;;;5026762;28;20049;-83
2023/04/02 06:48:46;;;;;;;8.25;1.77;;;2.90;99.90;;;;;;5026747;28;20517;-83
2023/04/02 06:51:15;;;;;;;8.00;1.90;;;2.90;99.90;;;;;;5019009;28;20516;-84
2023/04/02 06:53:45;;;;;;;8.25;1.90;;;2.90;99.90;;;;;;5017828;28;20407;-84
2023/04/02 06:56:30;;;;;;;4.05;1.95;;;3.00;99.90;;;;;;5016662;28;20037;-83
2023/04/02 06:58:56;;;;;;;;;;;3.20;99.90;;;;;;5001314;28;20041;-84
2023/04/02 07:01:26;;;;;;;5.72;2.00;;;3.10;99.90;;;;;;5033307;28;20012;-84
2023/04/02 07:03:53;;;;;;;4.72;1.60;;;3.20;99.90;;;;;;5035009;28;20052;-84
2023/04/02 07:06:21;;;;;;;4.75;1.25;;;3.30;99.90;;;;;;5015556;28;20689;-84
2023/04/02 07:08:48;;;;;;;5.13;1.95;;;3.30;99.90;;;;;;5001657;28;20139;-84
2023/04/02 07:11:16;;;;;;;4.57;1.60;;;3.40;99.90;;;;;;5000198;28;20475;-84
2023/04/02 07:13:42;;;;;;;4.50;1.75;;;3.50;99.90;;;;;;5001727;28;20037;-84
2023/04/02 07:16:14;;;;;;;7.55;2.10;;;3.60;99.90;;;;;;5045669;28;20036;-83
2023/04/02 07:18:41;;;;;;;4.40;1.50;;;3.60;99.90;;;;;;5027758;28;20046;-84
2023/04/02 07:21:06;;;;;;;3.00;1.23;;;3.70;99.90;;;;;;4999179;28;20045;-83
2023/04/02 07:23:32;;;;;;;6.28;1.60;;;3.70;99.90;;;;;;5001151;28;20095;-83
2023/04/02 07:25:58;;;;;;;7.55;1.77;;;3.80;99.90;;;;;;5017640;28;20041;-83
2023/04/02 07:28:24;;;;;;;5.78;1.40;;;3.90;99.90;;;;;;5018259;28;20229;-82
2023/04/02 07:30:51;;;;;;;5.93;1.75;;;4.10;99.90;;;;;;5020517;28;20033;-83
2023/04/02 07:33:20;;;;;;;6.20;1.63;;;4.00;99.90;;;;;;5042731;28;20033;-82
2023/04/02 07:35:46;;;;;;;4.10;1.25;;;4.30;99.90;;;;;;5016454;28;20095;-83
2023/04/02 07:38:12;;;;;;;1.85;1.13;;;4.40;99.90;;;;;;5017548;28;20707;-81
2023/04/02 07:40:38;;;;;;;5.43;1.42;;;4.50;99.90;;;;;;5015753;28;22198;-82
2023/04/02 07:43:05;;;;;;;3.35;1.23;;;4.60;99.90;;;;;;5015980;28;20079;-83
2023/04/02 07:45:31;;;;;;;5.63;1.90;;;4.60;99.90;;;;;;5000865;28;20041;-83
2023/04/02 07:48:02;;;;;;;6.97;1.60;;;4.70;99.90;;;;;;5017277;28;20034;-82
2023/04/02 07:50:29;;;;;;;7.78;1.67;;;4.70;99.90;;;;;;5025141;28;20069;-83
2023/04/02 07:52:55;;;;;;;4.97;1.50;;;4.70;99.90;;;;;;5018827;28;20431;-83
2023/04/02 07:55:20;;;;;;;4.05;1.70;;;4.80;99.90;;;;;;5017306;28;20147;-83
2023/04/02 07:57:49;;;;;;;3.60;1.35;;;4.70;99.90;;;;;;5032270;28;20060;-83
2023/04/02 08:00:15;;;;;;;4.13;1.50;;;4.70;99.90;;;;;;5000036;28;20041;-83
2023/04/02 08:02:41;;;;;;;3.60;1.45;;;4.80;99.90;;;;;;5018145;28;20067;-83
2023/04/02 08:05:10;;;;;;;3.35;1.55;;;5.00;99.90;;;;;;5015568;28;20049;-83
2023/04/02 08:07:37;;;;;;;5.72;1.50;;;5.10;99.90;;;;;;5018591;28;20777;-83
2023/04/02 08:10:04;;;;;;;3.83;1.35;;;5.30;99.90;;;;;;5039559;28;20663;-83
2023/04/02 08:12:30;;;;;;;5.75;1.50;;;5.30;99.90;;;;;;5000572;28;20042;-83
2023/04/02 08:14:55;;;;;;;2.70;1.30;;;5.30;99.90;;;;;;5017615;28;20093;-83
2023/04/02 08:17:21;;;;;;;3.30;1.52;;;5.40;99.90;;;;;;5033364;28;20086;-83
2023/04/02 08:19:48;;;;;;;4.30;1.48;;;5.30;99.90;;;;;;5042392;28;20077;-83
2023/04/02 08:22:13;;;;;;;3.50;1.60;;;5.40;99.90;;;;;;5016012;28;20037;-83
2023/04/02 08:24:39;;;;;;;4.05;1.85;;;5.30;99.90;;;;;;5014668;28;20388;-83
2023/04/02 08:27:06;;;;;;;4.10;1.55;;;5.40;99.90;;;;;;5015687;28;20057;-83
2023/04/02 08:29:32;;;;;;;6.97;2.65;;;5.30;99.90;;;;;;5012275;28;20065;-83
2023/04/02 08:31:58;;;;;;;3.72;1.88;;;5.40;99.90;;;;;;5013802;28;20189;-83
2023/04/02 08:34:25;;;;;;;4.25;1.60;;;5.80;99.90;;;;;;5016967;28;20513;-83
2023/04/02 08:36:55;;;;;;;2.60;1.52;;;5.80;99.90;;;;;;5013463;28;20061;-83
2023/04/02 08:39:21;;;;;;;3.30;1.60;;;5.70;99.90;;;;;;4999119;28;20103;-82
2023/04/02 08:41:54;;;;;;;6.65;1.70;;;6.00;99.90;;;;;;5016574;28;20128;-83
2023/04/02 08:44:26;;;;;;;7.03;1.70;;;6.10;99.90;;;;;;5016128;28;20455;-82
2023/04/02 08:46:53;;;;;;;4.07;1.40;;;6.40;99.90;;;;;;5002278;28;20052;-83
2023/04/02 08:49:31;;;;;;;7.45;1.70;;;6.50;99.90;;;;;;5000781;28;20042;-83
2023/04/02 08:51:57;;;;;;;2.10;1.50;;;6.60;99.90;;;;;;5015154;28;20045;-83
2023/04/02 08:54:31;;;;;;;7.22;1.52;;;6.20;99.90;;;;;;5012198;28;20107;-83
2023/04/02 08:57:06;;;;;;;4.80;1.70;;;6.30;99.90;;;;;;5000390;28;20117;-83
2023/04/02 08:59:40;;;;;;;5.72;1.45;;;6.50;99.90;;;;;;5013932;28;20037;-83
2023/04/02 09:02:19;;;;;;;3.35;1.58;;;6.10;99.90;;;;;;5013795;28;20399;-83
2023/04/02 09:04:45;;;;;;;4.22;1.50;;;5.60;99.90;;;;;;5043172;28;20575;-83
2023/04/02 09:07:13;;;;;;;4.50;1.98;;;5.60;99.90;;;;;;5014243;28;20045;-83
2023/04/02 09:09:40;;;;;;;4.85;1.50;;;5.90;99.90;;;;;;5031951;28;20087;-83
2023/04/02 09:12:13;;;;;;;4.10;1.35;;;5.80;99.90;;;;;;5015737;28;20099;-83
2023/04/02 09:14:56;;;;;;;6.47;2.15;;;5.60;99.90;;;;;;4998302;28;20564;-83
2023/04/02 09:17:25;;;;;;;2.75;1.55;;;5.60;99.90;;;;;;5015845;28;20072;-83
2023/04/02 09:20:17;;;;;;;4.63;1.95;;;6.00;99.90;;;;;;5014649;28;20045;-83
2023/04/02 09:22:45;;;;;;;6.57;1.83;;;6.30;99.90;;;;;;5006026;28;20042;-83
2023/04/02 09:25:19;;;;;;;6.82;1.90;;;6.50;99.90;;;;;;5013620;28;20751;-83
2023/04/02 09:27:54;;;;;;;5.67;1.80;;;6.70;99.90;;;;;;5019476;28;20522;-83
2023/04/02 09:30:40;;;;;;;3.53;1.42;;;6.70;99.90;;;;;;5020862;28;20391;-82
2023/04/02 09:33:06;;;;;;;4.10;1.50;;;6.70;99.90;;;;;;5015344;28;20244;-83
2023/04/02 09:35:52;;;;;;;4.78;1.55;;;6.60;99.90;;;;;;5034426;28;20316;-82
2023/04/02 09:38:20;;;;;;;2.70;1.48;;;6.80;99.90;;;;;;5017765;28;20049;-83
2023/04/02 09:41:18;;;;;;;4.88;1.95;;;6.90;99.90;;;;;;5017496;28;20262;-83
2023/04/02 09:43:44;;;;;;;2.28;1.30;;;7.00;99.90;;;;;;5018870;28;20077;-83
2023/04/02 09:46:22;;;;;;;5.47;1.63;;;6.90;99.90;;;;;;5018814;28;20250;-82
2023/04/02 09:49:02;;;;;;;3.05;1.40;;;6.60;99.90;;;;;;5020563;28;20037;-82
2023/04/02 09:51:32;;;;;;;3.35;1.48;;;6.80;99.90;;;;;;5017830;28;20677;-82
2023/04/02 09:54:06;;;;;;;3.63;1.10;;;7.00;99.90;;;;;;5003752;28;20067;-83
2023/04/02 09:56:38;;;;;;;3.73;1.50;;;6.90;99.90;;;;;;5003014;28;20410;-83
2023/04/02 09:59:11;;;;;;;4.38;1.50;;;7.10;99.90;;;;;;5029012;28;20284;-83
2023/04/02 10:01:48;;;;;;;3.97;1.73;;;7.00;99.90;;;;;;5016296;28;20051;-83
2023/04/02 10:04:51;;;;;;;4.97;1.65;;;7.40;99.90;;;;;;5020657;28;20053;-83
2023/04/02 10:07:29;;;;;;;2.95;1.40;;;7.40;99.90;;;;;;5020588;28;20037;-83
2023/04/02 10:10:11;;;;;;;4.45;1.52;;;7.70;83.50;;;;;;5013326;28;20072;-82
2023/04/02 10:12:41;;;;;;;4.05;1.30;;;7.60;52.40;;;;;;5017440;28;20347;-82
2023/04/02 10:15:16;;;;;;;5.20;1.42;;;7.70;99.90;;;;;;5027671;28;20060;-83
2023/04/02 10:17:42;;;;;;;5.50;1.50;;;7.90;99.90;;;;;;5017788;28;20382;-83
2023/04/02 10:20:18;;;;;;;3.03;1.50;;;8.20;99.90;;;;;;5018880;28;20313;-83
2023/04/02 10:22:45;;;;;;;5.22;1.60;;;7.90;99.90;;;;;;5017715;28;20380;-83
2023/04/02 10:25:17;;;;;;;4.30;1.48;;;8.10;1.00;;;;;;5041523;28;20958;-83
2023/04/02 10:27:43;;;;;;;4.28;1.40;;;7.80;99.90;;;;;;5045845;28;20471;-83
2023/04/02 10:30:24;;;;;;;2.95;1.45;;;8.10;99.90;;;;;;5033617;28;20051;-83
2023/04/02 10:32:53;;;;;;;5.20;2.05;;;8.10;99.90;;;;;;5017707;28;20045;-83
2023/04/02 10:35:56;;;;;;;4.07;1.50;;;8.20;42.00;;;;;;5016788;28;20136;-83
2023/04/02 10:38:41;;;;;;;2.60;1.30;;;8.30;99.90;;;;;;5034180;28;20053;-83
2023/04/02 10:41:36;;;;;;;2.15;1.02;;;8.50;99.90;;;;;;5002119;28;20163;-83
2023/04/02 10:44:14;;;;;;;2.30;1.02;;;8.30;1.00;;;;;;5001723;28;20440;-82
2023/04/02 10:46:46;;;;;;;3.33;1.08;;;8.60;99.90;;;;;;5041650;28;20413;-82
2023/04/02 10:49:29;;;;;;;3.72;1.10;;;8.70;99.90;;;;;;5017339;28;20651;-83
2023/04/02 10:52:18;;;;;;;2.13;1.00;;;8.80;99.90;;;;;;5017735;28;20053;-83
2023/04/02 10:54:51;;;;;;;2.47;1.23;;;8.40;99.90;;;;;;5017431;28;20045;-82
2023/04/02 10:57:36;;;;;;;3.63;1.38;;;8.50;99.90;;;;;;5028997;28;20437;-83
2023/04/02 11:00:14;;;;;;;3.72;1.42;;;9.00;99.90;;;;;;5015859;28;20045;-82
2023/04/02 11:02:50;;;;;;;3.15;1.23;;;8.90;99.90;;;;;;5003970;28;20052;-82
2023/04/02 11:05:25;;;;;;;1.92;1.13;;;9.00;99.90;;;;;;5034184;28;20069;-82
2023/04/02 11:08:09;;;;;;;2.85;1.17;;;9.40;99.90;;;;;;5017870;28;20037;-82
2023/04/02 11:10:42;;;;;;;4.00;1.20;;;9.40;99.90;;;;;;5013131;28;20569;-82
2023/04/02 11:13:19;;;;;;;3.35;1.00;;;9.60;99.90;;;;;;5002271;28;20120;-82
2023/04/02 11:15:45;;;;;;;3.42;1.15;;;9.60;99.90;;;;;;5000531;28;20073;-83
2023/04/02 11:18:40;;;;;;;4.45;1.10;;;9.60;99.90;;;;;;5019479;28;20091;-82
2023/04/02 11:21:28;;;;;;;2.47;1.15;;;9.30;99.90;;;;;;4996894;28;20052;-82
2023/04/02 11:24:01;;;;;;;3.42;1.35;;;9.20;99.90;;;;;;5002543;28;20057;-83
2023/04/02 11:26:45;;;;;;;3.00;1.27;;;9.40;1.00;;;;;;5015950;28;20049;-83
2023/04/02 11:29:21;;;;;;;3.78;1.27;;;9.90;99.90;;;;;;5031505;28;20037;-82
2023/04/02 11:31:49;;;;;;;4.68;1.23;;;9.30;99.90;;;;;;5016763;28;20151;-82
2023/04/02 11:34:39;;;;;;;3.22;1.45;;;9.10;99.90;;;;;;5017816;28;20063;-82
2023/04/02 11:37:33;;;;;;;2.90;1.20;;;9.60;99.90;;;;;;5044037;28;20061;-82
2023/04/02 11:40:43;;;;;;;2.85;1.10;;;9.60;99.90;;;;;;5014041;28;20049;-82
2023/04/02 11:43:37;;;;;;;4.40;1.30;;;9.50;99.90;;;;;;5013434;28;20045;-82
2023/04/02 11:46:05;;;;;;;3.75;1.30;;;10.10;99.90;;;;;;5016310;28;20460;-82
2023/04/02 11:48:34;;;;;;;2.17;0.75;;;10.40;99.90;;;;;;5018183;28;20052;-82
2023/04/02 11:51:19;;;;;;;2.83;1.40;;;10.30;99.90;;;;;;5000202;28;20038;-82
2023/04/02 11:53:45;;;;;;;6.55;1.10;;;10.40;99.90;;;;;;5012702;28;20554;-82
2023/04/02 11:56:43;;;;;;;2.50;1.48;;;10.50;99.90;;;;;;4999428;28;20029;-82
2023/04/02 11:59:44;;;;;;;3.50;1.30;;;10.60;99.90;;;;;;5000007;28;20510;-82
2023/04/02 12:02:31;;;;;;;4.53;1.58;;;10.80;1.00;;;;;;5043838;28;20079;-89
2023/04/02 12:05:02;;;;;;;2.63;0.90;;;10.80;1.00;;;;;;5003137;28;20033;-89
2023/04/02 12:07:50;;;;;;;3.20;1.05;;;11.10;99.90;;;;;;5001312;28;20121;-89
2023/04/02 12:10:22;;;;;;;2.40;1.02;;;11.00;99.90;;;;;;5000978;28;20037;-89
2023/04/02 12:12:49;;;;;;;2.60;0.90;;;11.50;99.90;;;;;;5001000;28;20132;-89
2023/04/02 12:15:35;;;;;;;3.80;1.13;;;11.30;99.90;;;;;;5016614;28;20061;-89
2023/04/02 12:18:21;;;;;;;4.32;0.95;;;11.40;99.90;;;;;;5009356;28;20037;-88
2023/04/02 12:20:54;;;;;;;2.55;1.00;;;10.50;1.00;;;;;;5019107;28;20422;-89
2023/04/02 12:23:30;;;;;;;2.20;0.98;;;10.80;99.90;;;;;;5004360;28;20166;-89
2023/04/02 12:26:29;;;;;;;2.15;1.10;;;10.40;1.00;;;;;;5003702;28;20045;-89
2023/04/02 12:29:13;;;;;;;4.63;1.20;;;10.90;1.00;;;;;;5002544;28;20048;-90
2023/04/02 12:31:43;;;;;;;2.78;1.08;;;11.30;99.90;;;;;;5000825;28;20038;-88
2023/04/02 12:34:15;;;;;;;2.78;0.88;;;11.10;99.90;;;;;;5001608;28;20033;-89
2023/04/02 12:36:51;;;;;;;2.47;1.02;;;11.30;1.00;;;;;;5000548;28;20053;-89
2023/04/02 12:39:17;;;;;;;1.80;1.02;;;11.50;99.90;;;;;;5002139;28;20049;-89
2023/04/02 12:41:43;;;;;;;2.25;1.10;;;11.80;99.90;;;;;;5000599;28;20566;-88
2023/04/02 12:44:15;;;;;;;2.55;0.80;;;12.00;1.00;;;;;;5031644;28;20073;-89
2023/04/02 12:46:42;;;;;;;1.58;0.98;;;11.90;99.90;;;;;;4999821;28;20510;-88
2023/04/02 12:49:40;;;;;;;2.13;0.95;;;11.90;99.90;;;;;;5002532;28;20053;-88
2023/04/02 12:52:09;;;;;;;2.15;0.93;;;11.70;99.90;;;;;;5018045;28;20045;-89
2023/04/02 12:54:50;;;;;;;3.10;1.15;;;11.40;1.00;;;;;;5020770;28;20514;-90
2023/04/02 12:57:25;;;;;;;2.25;1.00;;;11.50;99.90;;;;;;5004559;28;20083;-89
2023/04/02 12:59:53;;;;;;;3.33;1.15;;;11.40;1.00;;;;;;5021536;28;20079;-89
2023/04/02 13:02:23;;;;;;;2.88;1.05;;;11.60;1.00;;;;;;5008380;28;20069;-89
2023/04/02 13:04:54;;;;;;;1.85;1.00;;;11.80;1.00;;;;;;5005405;28;20282;-89
2023/04/02 13:07:24;;;;;;;2.38;1.02;;;11.70;1.00;;;;;;5008597;28;20661;-89
2023/04/02 13:10:06;;;;;;;2.92;1.02;;;11.70;99.90;;;;;;5008775;28;20044;-89
2023/04/02 13:12:40;;;;;;;2.80;1.20;;;12.40;99.90;;;;;;5026927;28;20029;-89
2023/04/02 13:15:19;;;;;;;2.20;1.13;;;12.60;99.90;;;;;;5004166;28;20053;-89
2023/04/02 13:17:47;;;;;;;1.60;0.75;;;12.70;1.00;;;;;;5026416;28;20051;-89
2023/04/02 13:20:33;;;;;;;2.47;1.25;;;12.80;1.00;;;;;;5029794;28;20301;-89
2023/04/02 13:23:20;;;;;;;3.10;1.25;;;12.80;99.90;;;;;;5006171;28;20088;-89
2023/04/02 13:25:46;;;;;;;1.80;0.98;;;13.10;1.00;;;;;;5017442;28;20053;-89
2023/04/02 13:28:12;;;;;;;2.97;1.08;;;12.40;99.90;;;;;;5020696;28;20079;-89
2023/04/02 13:30:37;;;;;;;1.90;0.80;;;12.00;99.90;;;;;;5004160;28;20052;-87
2023/04/02 13:33:03;;;;;;;2.58;1.30;;;11.70;99.90;;;;;;5020280;28;20102;-89
2023/04/02 13:35:29;;;;;;;1.10;0.75;;;12.00;99.90;;;;;;5021031;28;20042;-89
2023/04/02 13:37:55;;;;;;;2.33;1.10;;;12.60;99.90;;;;;;5006564;28;20057;-89
2023/04/02 13:40:21;;;;;;;2.63;1.23;;;12.20;99.90;;;;;;5004967;28;20139;-89
2023/04/02 13:42:48;;;;;;;2.15;1.08;;;12.60;99.90;;;;;;5021625;28;20037;-89